sensor_id;sensor_type;location;lat;lon;timestamp;pressure;altitude;pressure_sealevel;temperature;humidity
40788;BME280;26497;52.494;7.546;2023-11-22T00:02:17;102117.44;;;6.94;66.50
40788;BME280;26497;52.494;7.546;2023-11-22T00:04:46;102111.78;;;6.83;66.80
40788;BME280;26497;52.494;7.546;2023-11-22T00:07:13;102117.09;;;6.85;66.87
40788;BME280;26497;52.494;7.546;2023-11-22T00:09:40;102118.03;;;6.87;66.73
40788;BME280;26497;52.494;7.546;2023-11-22T00:12:08;102113.63;;;6.63;66.73
40788;BME280;26497;52.494;7.546;2023-11-22T00:14:35;102121.63;;;6.66;66.43
40788;BME280;26497;52.494;7.546;2023-11-22T00:17:05;102105.06;;;6.67;66.28
40788;BME280;26497;52.494;7.546;2023-11-22T00:19:32;102112.78;;;6.64;66.49
40788;BME280;26497;52.494;7.546;2023-11-22T00:22:01;102116.47;;;6.46;66.85
40788;BME280;26497;52.494;7.546;2023-11-22T00:24:37;102112.06;;;6.45;67.06
40788;BME280;26497;52.494;7.546;2023-11-22T00:27:04;102108.97;;;6.33;67.16
40788;BME280;26497;52.494;7.546;2023-11-22T00:29:32;102119.06;;;6.24;66.99
40788;BME280;26497;52.494;7.546;2023-11-22T00:32:01;102117.28;;;6.44;66.15
40788;BME280;26497;52.494;7.546;2023-11-22T00:34:30;102112.63;;;6.37;66.13
40788;BME280;26497;52.494;7.546;2023-11-22T00:36:57;102116.22;;;6.40;65.72
40788;BME280;26497;52.494;7.546;2023-11-22T00:39:25;102117.38;;;6.47;65.58
40788;BME280;26497;52.494;7.546;2023-11-22T00:41:52;102120.47;;;6.37;65.45
40788;BME280;26497;52.494;7.546;2023-11-22T00:44:22;102131.72;;;6.34;65.40
40788;BME280;26497;52.494;7.546;2023-11-22T00:46:50;102143.16;;;6.36;65.41
40788;BME280;26497;52.494;7.546;2023-11-22T00:49:18;102138.38;;;6.26;66.52
40788;BME280;26497;52.494;7.546;2023-11-22T00:51:48;102134.91;;;6.27;66.38
40788;BME280;26497;52.494;7.546;2023-11-22T00:54:17;102143.56;;;6.24;66.61
40788;BME280;26497;52.494;7.546;2023-11-22T00:56:47;102146.19;;;6.24;66.76
40788;BME280;26497;52.494;7.546;2023-11-22T00:59:16;102145.75;;;6.36;66.31
40788;BME280;26497;52.494;7.546;2023-11-22T01:01:45;102152.91;;;6.40;66.71
40788;BME280;26497;52.494;7.546;2023-11-22T01:04:14;102159.25;;;6.45;67.06
40788;BME280;26497;52.494;7.546;2023-11-22T01:06:51;102168.84;;;6.45;67.00
40788;BME280;26497;52.494;7.546;2023-11-22T01:09:24;102156.88;;;6.52;66.65
40788;BME280;26497;52.494;7.546;2023-11-22T01:12:03;102155.50;;;6.39;67.16
40788;BME280;26497;52.494;7.546;2023-11-22T01:14:34;102158.75;;;6.33;67.82
40788;BME280;26497;52.494;7.546;2023-11-22T01:17:05;102164.81;;;6.32;67.88
40788;BME280;26497;52.494;7.546;2023-11-22T01:19:40;102167.19;;;6.26;68.19
40788;BME280;26497;52.494;7.546;2023-11-22T01:22:18;102170.19;;;6.35;67.88
40788;BME280;26497;52.494;7.546;2023-11-22T01:24:55;102168.56;;;6.60;67.16
40788;BME280;26497;52.494;7.546;2023-11-22T01:27:27;102180.84;;;6.61;67.18
40788;BME280;26497;52.494;7.546;2023-11-22T01:30:13;102190.63;;;6.65;67.06
40788;BME280;26497;52.494;7.546;2023-11-22T01:32:44;102179.88;;;6.59;67.90
40788;BME280;26497;52.494;7.546;2023-11-22T01:35:28;102192.41;;;6.66;67.46
40788;BME280;26497;52.494;7.546;2023-11-22T01:38:18;102197.28;;;6.57;68.01
40788;BME280;26497;52.494;7.546;2023-11-22T01:41:05;102202.06;;;6.67;67.84
40788;BME280;26497;52.494;7.546;2023-11-22T01:48:04;102211.13;;;6.75;67.99
40788;BME280;26497;52.494;7.546;2023-11-22T01:50:55;102211.59;;;6.65;68.13
40788;BME280;26497;52.494;7.546;2023-11-22T01:54:19;102215.78;;;6.83;67.73
40788;BME280;26497;52.494;7.546;2023-11-22T01:57:01;102222.13;;;6.88;67.32
40788;BME280;26497;52.494;7.546;2023-11-22T01:59:41;102220.34;;;6.66;67.76
40788;BME280;26497;52.494;7.546;2023-11-22T02:02:21;102219.50;;;6.67;67.84
40788;BME280;26497;52.494;7.546;2023-11-22T02:04:54;102221.13;;;6.63;68.03
40788;BME280;26497;52.494;7.546;2023-11-22T02:07:26;102218.50;;;6.63;67.63
40788;BME280;26497;52.494;7.546;2023-11-22T02:10:00;102219.00;;;6.75;66.90
40788;BME280;26497;52.494;7.546;2023-11-22T02:12:45;102218.75;;;6.69;67.67
40788;BME280;26497;52.494;7.546;2023-11-22T02:15:17;102222.31;;;6.71;67.63
40788;BME280;26497;52.494;7.546;2023-11-22T02:17:50;102222.13;;;6.67;67.37
40788;BME280;26497;52.494;7.546;2023-11-22T02:20:23;102215.28;;;6.70;67.48
40788;BME280;26497;52.494;7.546;2023-11-22T02:23:12;102210.94;;;6.71;67.46
40788;BME280;26497;52.494;7.546;2023-11-22T02:25:52;102211.97;;;6.74;67.03
40788;BME280;26497;52.494;7.546;2023-11-22T02:29:01;102209.13;;;6.70;66.73
40788;BME280;26497;52.494;7.546;2023-11-22T02:31:59;102200.72;;;6.56;66.55
40788;BME280;26497;52.494;7.546;2023-11-22T02:34:47;102200.84;;;6.16;67.43
40788;BME280;26497;52.494;7.546;2023-11-22T02:37:20;102207.75;;;6.14;67.15
40788;BME280;26497;52.494;7.546;2023-11-22T02:40:11;102193.47;;;6.27;66.33
40788;BME280;26497;52.494;7.546;2023-11-22T02:43:14;102193.66;;;6.11;66.39
40788;BME280;26497;52.494;7.546;2023-11-22T02:46:25;102198.19;;;6.15;66.21
40788;BME280;26497;52.494;7.546;2023-11-22T02:50:01;102209.00;;;6.03;66.36
40788;BME280;26497;52.494;7.546;2023-11-22T03:00:16;102221.06;;;5.80;65.90
40788;BME280;26497;52.494;7.546;2023-11-22T03:03:09;102227.78;;;5.93;65.33
40788;BME280;26497;52.494;7.546;2023-11-22T03:06:19;102222.19;;;6.04;64.96
40788;BME280;26497;52.494;7.546;2023-11-22T03:17:14;102219.50;;;5.83;65.26
40788;BME280;26497;52.494;7.546;2023-11-22T03:19:41;102230.59;;;5.78;64.97
40788;BME280;26497;52.494;7.546;2023-11-22T03:22:08;102227.41;;;5.65;65.83
40788;BME280;26497;52.494;7.546;2023-11-22T03:24:34;102223.22;;;5.49;66.41
40788;BME280;26497;52.494;7.546;2023-11-22T03:27:03;102231.63;;;5.42;66.80
40788;BME280;26497;52.494;7.546;2023-11-22T03:29:32;102244.63;;;5.60;66.37
40788;BME280;26497;52.494;7.546;2023-11-22T03:32:00;102237.75;;;5.62;66.03
40788;BME280;26497;52.494;7.546;2023-11-22T03:34:28;102241.56;;;5.69;65.76
40788;BME280;26497;52.494;7.546;2023-11-22T03:36:55;102264.44;;;5.73;65.26
40788;BME280;26497;52.494;7.546;2023-11-22T03:39:23;102261.31;;;5.82;65.40
40788;BME280;26497;52.494;7.546;2023-11-22T03:41:50;102262.38;;;5.85;65.24
40788;BME280;26497;52.494;7.546;2023-11-22T03:44:17;102280.56;;;5.82;65.49
40788;BME280;26497;52.494;7.546;2023-11-22T03:46:44;102289.50;;;5.68;65.79
40788;BME280;26497;52.494;7.546;2023-11-22T03:49:12;102295.75;;;5.71;65.11
40788;BME280;26497;52.494;7.546;2023-11-22T03:51:42;102298.38;;;5.71;65.82
40788;BME280;26497;52.494;7.546;2023-11-22T03:54:09;102297.00;;;5.60;65.72
40788;BME280;26497;52.494;7.546;2023-11-22T03:56:38;102297.81;;;5.59;66.52
40788;BME280;26497;52.494;7.546;2023-11-22T03:59:05;102296.78;;;5.55;66.69
40788;BME280;26497;52.494;7.546;2023-11-22T04:01:32;102301.13;;;5.55;66.76
40788;BME280;26497;52.494;7.546;2023-11-22T04:03:59;102299.41;;;5.37;66.83
40788;BME280;26497;52.494;7.546;2023-11-22T04:06:26;102279.69;;;5.44;66.70
40788;BME280;26497;52.494;7.546;2023-11-22T04:08:54;102263.56;;;5.35;66.37
40788;BME280;26497;52.494;7.546;2023-11-22T04:11:21;102274.56;;;5.27;66.51
40788;BME280;26497;52.494;7.546;2023-11-22T04:13:48;102281.66;;;5.30;65.86
40788;BME280;26497;52.494;7.546;2023-11-22T04:16:15;102282.22;;;5.42;65.28
40788;BME280;26497;52.494;7.546;2023-11-22T04:18:43;102266.59;;;5.44;65.44
40788;BME280;26497;52.494;7.546;2023-11-22T04:21:10;102278.78;;;5.43;65.66
40788;BME280;26497;52.494;7.546;2023-11-22T04:23:37;102273.50;;;5.42;65.39
40788;BME280;26497;52.494;7.546;2023-11-22T04:26:05;102278.91;;;5.46;65.45
40788;BME280;26497;52.494;7.546;2023-11-22T04:28:33;102283.47;;;5.51;65.28
40788;BME280;26497;52.494;7.546;2023-11-22T04:31:00;102292.09;;;5.48;65.25
40788;BME280;26497;52.494;7.546;2023-11-22T04:33:27;102279.41;;;5.38;65.47
40788;BME280;26497;52.494;7.546;2023-11-22T04:35:55;102268.34;;;5.25;65.80
40788;BME280;26497;52.494;7.546;2023-11-22T04:38:22;102276.81;;;5.20;65.99
40788;BME280;26497;52.494;7.546;2023-11-22T04:40:49;102286.91;;;5.30;65.70
40788;BME280;26497;52.494;7.546;2023-11-22T04:43:17;102286.03;;;5.11;65.70
40788;BME280;26497;52.494;7.546;2023-11-22T04:45:44;102289.31;;;5.07;66.22
40788;BME280;26497;52.494;7.546;2023-11-22T04:48:11;102296.47;;;5.11;65.93
40788;BME280;26497;52.494;7.546;2023-11-22T04:50:40;102313.16;;;5.13;65.90
40788;BME280;26497;52.494;7.546;2023-11-22T04:53:08;102320.84;;;5.10;65.58
40788;BME280;26497;52.494;7.546;2023-11-22T04:55:35;102333.09;;;5.11;65.83
40788;BME280;26497;52.494;7.546;2023-11-22T04:58:02;102332.81;;;5.05;65.79
40788;BME280;26497;52.494;7.546;2023-11-22T05:00:31;102327.94;;;5.13;66.20
40788;BME280;26497;52.494;7.546;2023-11-22T05:02:58;102326.13;;;5.12;65.90
40788;BME280;26497;52.494;7.546;2023-11-22T05:05:24;102330.78;;;5.18;65.98
40788;BME280;26497;52.494;7.546;2023-11-22T05:07:51;102324.59;;;5.15;65.72
40788;BME280;26497;52.494;7.546;2023-11-22T05:10:19;102318.34;;;4.95;65.65
40788;BME280;26497;52.494;7.546;2023-11-22T05:12:46;102327.69;;;4.90;65.78
40788;BME280;26497;52.494;7.546;2023-11-22T05:15:13;102330.56;;;4.95;65.47
40788;BME280;26497;52.494;7.546;2023-11-22T05:17:42;102334.97;;;4.96;65.59
40788;BME280;26497;52.494;7.546;2023-11-22T05:20:09;102347.47;;;4.85;65.43
40788;BME280;26497;52.494;7.546;2023-11-22T05:22:36;102351.56;;;4.80;65.11
40788;BME280;26497;52.494;7.546;2023-11-22T05:25:04;102343.81;;;4.63;64.71
40788;BME280;26497;52.494;7.546;2023-11-22T05:27:32;102337.06;;;4.68;64.56
40788;BME280;26497;52.494;7.546;2023-11-22T05:29:59;102335.81;;;4.60;64.67
40788;BME280;26497;52.494;7.546;2023-11-22T05:32:27;102327.50;;;4.51;65.11
40788;BME280;26497;52.494;7.546;2023-11-22T05:34:55;102329.44;;;4.55;64.92
40788;BME280;26497;52.494;7.546;2023-11-22T05:37:22;102325.06;;;4.37;64.81
40788;BME280;26497;52.494;7.546;2023-11-22T05:39:49;102319.53;;;4.31;65.06
40788;BME280;26497;52.494;7.546;2023-11-22T05:42:16;102319.22;;;4.25;64.50
40788;BME280;26497;52.494;7.546;2023-11-22T05:44:56;102321.81;;;4.08;64.85
40788;BME280;26497;52.494;7.546;2023-11-22T05:47:23;102326.13;;;4.24;65.35
40788;BME280;26497;52.494;7.546;2023-11-22T05:49:51;102324.75;;;4.31;65.28
40788;BME280;26497;52.494;7.546;2023-11-22T05:52:19;102330.22;;;4.19;65.03
40788;BME280;26497;52.494;7.546;2023-11-22T05:54:47;102324.19;;;4.04;64.98
40788;BME280;26497;52.494;7.546;2023-11-22T05:57:14;102319.53;;;3.98;65.15
40788;BME280;26497;52.494;7.546;2023-11-22T05:59:41;102328.34;;;4.00;65.18
40788;BME280;26497;52.494;7.546;2023-11-22T06:02:08;102335.75;;;4.09;65.11
40788;BME280;26497;52.494;7.546;2023-11-22T06:04:35;102342.78;;;4.26;64.64
40788;BME280;26497;52.494;7.546;2023-11-22T06:07:03;102340.25;;;4.28;64.90
40788;BME280;26497;52.494;7.546;2023-11-22T06:09:31;102342.28;;;4.34;64.63
40788;BME280;26497;52.494;7.546;2023-11-22T06:11:59;102346.53;;;4.32;64.73
40788;BME280;26497;52.494;7.546;2023-11-22T06:14:26;102353.16;;;4.25;64.83
40788;BME280;26497;52.494;7.546;2023-11-22T06:16:53;102348.44;;;4.18;64.94
40788;BME280;26497;52.494;7.546;2023-11-22T06:19:20;102347.63;;;4.19;64.58
40788;BME280;26497;52.494;7.546;2023-11-22T06:21:47;102347.19;;;4.11;64.18
40788;BME280;26497;52.494;7.546;2023-11-22T06:24:14;102345.06;;;4.04;64.42
40788;BME280;26497;52.494;7.546;2023-11-22T06:26:44;102347.22;;;3.94;64.80
40788;BME280;26497;52.494;7.546;2023-11-22T06:29:11;102335.97;;;3.95;64.30
40788;BME280;26497;52.494;7.546;2023-11-22T06:31:38;102344.09;;;3.85;64.46
40788;BME280;26497;52.494;7.546;2023-11-22T06:34:06;102347.59;;;3.86;65.19
40788;BME280;26497;52.494;7.546;2023-11-22T06:36:33;102353.97;;;3.91;65.02
40788;BME280;26497;52.494;7.546;2023-11-22T06:38:59;102356.69;;;3.92;65.19
40788;BME280;26497;52.494;7.546;2023-11-22T06:41:27;102364.41;;;3.91;65.03
40788;BME280;26497;52.494;7.546;2023-11-22T06:43:55;102358.94;;;4.03;65.58
40788;BME280;26497;52.494;7.546;2023-11-22T06:46:23;102359.84;;;4.20;65.50
40788;BME280;26497;52.494;7.546;2023-11-22T06:48:50;102362.13;;;4.30;65.17
40788;BME280;26497;52.494;7.546;2023-11-22T06:51:17;102357.78;;;4.31;64.99
40788;BME280;26497;52.494;7.546;2023-11-22T06:53:44;102369.22;;;4.33;65.42
40788;BME280;26497;52.494;7.546;2023-11-22T06:56:11;102369.97;;;4.30;65.15
40788;BME280;26497;52.494;7.546;2023-11-22T06:58:38;102370.53;;;4.24;65.44
40788;BME280;26497;52.494;7.546;2023-11-22T07:01:07;102383.25;;;4.18;64.94
40788;BME280;26497;52.494;7.546;2023-11-22T07:03:36;102390.13;;;4.16;65.21
40788;BME280;26497;52.494;7.546;2023-11-22T07:06:04;102393.72;;;4.18;65.62
40788;BME280;26497;52.494;7.546;2023-11-22T07:08:31;102406.53;;;4.30;65.66
40788;BME280;26497;52.494;7.546;2023-11-22T07:10:58;102405.56;;;4.45;65.93
40788;BME280;26497;52.494;7.546;2023-11-22T07:13:25;102410.63;;;4.58;65.77
40788;BME280;26497;52.494;7.546;2023-11-22T07:15:53;102416.06;;;4.63;66.56
40788;BME280;26497;52.494;7.546;2023-11-22T07:18:22;102413.84;;;4.70;66.56
40788;BME280;26497;52.494;7.546;2023-11-22T07:20:50;102407.38;;;4.80;66.92
40788;BME280;26497;52.494;7.546;2023-11-22T07:23:19;102404.81;;;4.98;66.92
40788;BME280;26497;52.494;7.546;2023-11-22T07:25:48;102403.09;;;4.99;67.16
40788;BME280;26497;52.494;7.546;2023-11-22T07:28:15;102391.38;;;5.09;67.10
40788;BME280;26497;52.494;7.546;2023-11-22T07:30:42;102390.34;;;5.05;67.54
40788;BME280;26497;52.494;7.546;2023-11-22T07:33:22;102383.22;;;5.02;68.02
40788;BME280;26497;52.494;7.546;2023-11-22T07:35:51;102384.44;;;5.09;67.83
40788;BME280;26497;52.494;7.546;2023-11-22T07:38:19;102379.34;;;5.12;68.00
40788;BME280;26497;52.494;7.546;2023-11-22T07:40:46;102368.66;;;5.08;68.26
40788;BME280;26497;52.494;7.546;2023-11-22T07:43:14;102363.72;;;5.14;68.01
40788;BME280;26497;52.494;7.546;2023-11-22T07:45:41;102361.88;;;5.11;68.00
40788;BME280;26497;52.494;7.546;2023-11-22T07:48:10;102360.75;;;5.24;67.98
40788;BME280;26497;52.494;7.546;2023-11-22T07:50:40;102359.09;;;5.26;67.98
40788;BME280;26497;52.494;7.546;2023-11-22T07:53:09;102348.25;;;5.37;68.01
40788;BME280;26497;52.494;7.546;2023-11-22T07:55:37;102350.41;;;5.45;68.02
40788;BME280;26497;52.494;7.546;2023-11-22T07:58:04;102356.69;;;5.49;68.16
40788;BME280;26497;52.494;7.546;2023-11-22T08:00:32;102353.53;;;5.56;67.96
40788;BME280;26497;52.494;7.546;2023-11-22T08:03:00;102360.72;;;5.60;68.33
40788;BME280;26497;52.494;7.546;2023-11-22T08:05:28;102382.91;;;5.69;68.38
40788;BME280;26497;52.494;7.546;2023-11-22T08:08:01;102386.84;;;5.79;68.45
40788;BME280;26497;52.494;7.546;2023-11-22T08:10:32;102390.09;;;5.73;68.93
40788;BME280;26497;52.494;7.546;2023-11-22T08:13:01;102401.00;;;5.82;68.87
40788;BME280;26497;52.494;7.546;2023-11-22T08:15:29;102416.31;;;5.93;68.91
40788;BME280;26497;52.494;7.546;2023-11-22T08:17:58;102420.50;;;5.89;69.01
40788;BME280;26497;52.494;7.546;2023-11-22T08:20:26;102431.59;;;6.01;68.98
40788;BME280;26497;52.494;7.546;2023-11-22T08:22:53;102437.19;;;6.09;69.09
40788;BME280;26497;52.494;7.546;2023-11-22T08:25:21;102444.44;;;6.15;68.98
40788;BME280;26497;52.494;7.546;2023-11-22T08:27:48;102430.97;;;6.07;69.24
40788;BME280;26497;52.494;7.546;2023-11-22T08:30:16;102428.50;;;6.10;69.55
40788;BME280;26497;52.494;7.546;2023-11-22T08:32:43;102434.84;;;6.15;69.39
40788;BME280;26497;52.494;7.546;2023-11-22T08:35:14;102442.84;;;6.18;69.55
40788;BME280;26497;52.494;7.546;2023-11-22T08:37:41;102444.38;;;6.33;69.68
40788;BME280;26497;52.494;7.546;2023-11-22T08:40:10;102448.38;;;6.44;69.82
40788;BME280;26497;52.494;7.546;2023-11-22T08:42:41;102442.59;;;6.52;69.94
40788;BME280;26497;52.494;7.546;2023-11-22T08:45:10;102434.59;;;6.68;70.41
40788;BME280;26497;52.494;7.546;2023-11-22T08:47:38;102432.00;;;6.89;70.63
40788;BME280;26497;52.494;7.546;2023-11-22T08:50:07;102430.72;;;7.01;70.68
40788;BME280;26497;52.494;7.546;2023-11-22T08:52:49;102431.75;;;7.26;71.24
40788;BME280;26497;52.494;7.546;2023-11-22T08:55:18;102419.84;;;7.34;70.77
40788;BME280;26497;52.494;7.546;2023-11-22T08:57:49;102417.06;;;7.52;70.75
40788;BME280;26497;52.494;7.546;2023-11-22T09:00:17;102405.16;;;7.60;70.47
40788;BME280;26497;52.494;7.546;2023-11-22T09:02:48;102402.03;;;7.48;69.94
40788;BME280;26497;52.494;7.546;2023-11-22T09:05:16;102409.06;;;7.49;70.71
40788;BME280;26497;52.494;7.546;2023-11-22T09:07:45;102419.94;;;7.58;70.97
40788;BME280;26497;52.494;7.546;2023-11-22T09:10:13;102409.22;;;7.75;71.44
40788;BME280;26497;52.494;7.546;2023-11-22T09:12:42;102410.88;;;7.95;70.85
40788;BME280;26497;52.494;7.546;2023-11-22T09:15:17;102404.31;;;8.07;71.33
40788;BME280;26497;52.494;7.546;2023-11-22T09:17:52;102415.81;;;8.10;71.40
40788;BME280;26497;52.494;7.546;2023-11-22T09:20:20;102426.91;;;8.26;71.60
40788;BME280;26497;52.494;7.546;2023-11-22T09:22:49;102435.72;;;8.26;71.78
40788;BME280;26497;52.494;7.546;2023-11-22T09:25:17;102436.28;;;8.42;71.90
40788;BME280;26497;52.494;7.546;2023-11-22T09:27:45;102427.41;;;8.63;71.70
40788;BME280;26497;52.494;7.546;2023-11-22T09:30:15;102443.50;;;8.72;71.35
40788;BME280;26497;52.494;7.546;2023-11-22T09:32:59;102425.31;;;8.78;71.59
40788;BME280;26497;52.494;7.546;2023-11-22T09:35:27;102439.75;;;8.90;71.58
40788;BME280;26497;52.494;7.546;2023-11-22T09:37:55;102436.41;;;8.69;69.94
40788;BME280;26497;52.494;7.546;2023-11-22T09:40:22;102432.84;;;8.45;71.57
40788;BME280;26497;52.494;7.546;2023-11-22T09:42:49;102435.94;;;8.55;72.24
40788;BME280;26497;52.494;7.546;2023-11-22T09:45:19;102435.91;;;8.80;72.07
40788;BME280;26497;52.494;7.546;2023-11-22T09:47:47;102437.94;;;8.89;71.97
40788;BME280;26497;52.494;7.546;2023-11-22T09:50:20;102429.44;;;8.96;72.77
40788;BME280;26497;52.494;7.546;2023-11-22T09:52:51;102438.34;;;9.25;72.09
40788;BME280;26497;52.494;7.546;2023-11-22T09:55:20;102432.41;;;9.33;72.83
40788;BME280;26497;52.494;7.546;2023-11-22T09:57:49;102427.31;;;9.37;72.42
40788;BME280;26497;52.494;7.546;2023-11-22T10:00:17;102432.44;;;9.60;72.81
40788;BME280;26497;52.494;7.546;2023-11-22T10:02:47;102438.28;;;9.79;73.04
40788;BME280;26497;52.494;7.546;2023-11-22T10:05:16;102434.69;;;10.06;73.23
40788;BME280;26497;52.494;7.546;2023-11-22T10:07:43;102436.72;;;10.14;72.58
40788;BME280;26497;52.494;7.546;2023-11-22T10:10:15;102434.19;;;10.19;73.28
40788;BME280;26497;52.494;7.546;2023-11-22T10:12:44;102445.28;;;10.38;73.61
40788;BME280;26497;52.494;7.546;2023-11-22T10:15:13;102428.31;;;10.58;73.44
40788;BME280;26497;52.494;7.546;2023-11-22T10:17:51;102423.78;;;10.86;72.84
40788;BME280;26497;52.494;7.546;2023-11-22T10:20:24;102416.81;;;10.88;72.05
40788;BME280;26497;52.494;7.546;2023-11-22T10:22:51;102413.06;;;10.80;73.06
40788;BME280;26497;52.494;7.546;2023-11-22T10:25:20;102415.06;;;10.89;71.73
40788;BME280;26497;52.494;7.546;2023-11-22T10:27:48;102406.47;;;10.64;71.65
40788;BME280;26497;52.494;7.546;2023-11-22T10:30:17;102411.16;;;10.74;72.28
40788;BME280;26497;52.494;7.546;2023-11-22T10:32:44;102417.19;;;10.70;72.41
40788;BME280;26497;52.494;7.546;2023-11-22T10:35:12;102425.88;;;10.66;71.62
40788;BME280;26497;52.494;7.546;2023-11-22T10:37:42;102419.31;;;10.50;70.44
40788;BME280;26497;52.494;7.546;2023-11-22T10:40:13;102422.78;;;10.49;71.20
40788;BME280;26497;52.494;7.546;2023-11-22T10:42:41;102416.72;;;10.52;70.41
40788;BME280;26497;52.494;7.546;2023-11-22T10:45:10;102409.03;;;10.00;70.28
40788;BME280;26497;52.494;7.546;2023-11-22T10:47:38;102415.69;;;9.87;70.30
40788;BME280;26497;52.494;7.546;2023-11-22T10:50:08;102413.19;;;9.92;71.15
40788;BME280;26497;52.494;7.546;2023-11-22T10:52:36;102413.09;;;10.19;71.46
40788;BME280;26497;52.494;7.546;2023-11-22T10:55:06;102419.00;;;10.10;70.38
40788;BME280;26497;52.494;7.546;2023-11-22T10:57:44;102417.41;;;9.85;70.96
40788;BME280;26497;52.494;7.546;2023-11-22T11:00:12;102403.91;;;10.04;70.38
40788;BME280;26497;52.494;7.546;2023-11-22T11:02:45;102393.38;;;10.37;71.65
40788;BME280;26497;52.494;7.546;2023-11-22T11:05:18;102396.97;;;10.39;70.75
40788;BME280;26497;52.494;7.546;2023-11-22T11:08:00;102401.91;;;10.57;72.23
40788;BME280;26497;52.494;7.546;2023-11-22T11:10:30;102394.31;;;10.69;72.00
40788;BME280;26497;52.494;7.546;2023-11-22T11:12:58;102379.25;;;10.65;72.11
40788;BME280;26497;52.494;7.546;2023-11-22T11:15:25;102369.56;;;10.99;73.68
40788;BME280;26497;52.494;7.546;2023-11-22T11:17:53;102354.97;;;11.14;74.40
40788;BME280;26497;52.494;7.546;2023-11-22T11:20:23;102351.06;;;10.98;70.83
40788;BME280;26497;52.494;7.546;2023-11-22T11:22:50;102349.44;;;11.04;73.42
40788;BME280;26497;52.494;7.546;2023-11-22T11:25:18;102328.63;;;10.80;70.54
40788;BME280;26497;52.494;7.546;2023-11-22T11:27:56;102326.41;;;10.30;69.51
40788;BME280;26497;52.494;7.546;2023-11-22T11:30:44;102310.59;;;9.99;69.58
40788;BME280;26497;52.494;7.546;2023-11-22T11:33:17;102297.41;;;9.67;71.66
40788;BME280;26497;52.494;7.546;2023-11-22T11:35:47;102280.28;;;9.82;71.46
40788;BME280;26497;52.494;7.546;2023-11-22T11:38:16;102258.66;;;9.95;79.57
40788;BME280;26497;52.494;7.546;2023-11-22T11:40:47;102237.91;;;10.08;80.58
40788;BME280;26497;52.494;7.546;2023-11-22T11:43:21;102248.41;;;10.38;82.66
40788;BME280;26497;52.494;7.546;2023-11-22T11:45:49;102250.38;;;11.20;83.98
40788;BME280;26497;52.494;7.546;2023-11-22T11:48:18;102245.00;;;11.59;87.24
40788;BME280;26497;52.494;7.546;2023-11-22T11:50:46;102240.84;;;11.27;79.55
40788;BME280;26497;52.494;7.546;2023-11-22T11:53:13;102233.03;;;11.76;83.45
40788;BME280;26497;52.494;7.546;2023-11-22T11:55:41;102221.03;;;11.92;76.55
40788;BME280;26497;52.494;7.546;2023-11-22T11:58:11;102216.81;;;11.58;79.11
40788;BME280;26497;52.494;7.546;2023-11-22T12:00:39;102208.13;;;11.65;77.19
40788;BME280;26497;52.494;7.546;2023-11-22T12:03:07;102200.56;;;11.82;80.27
40788;BME280;26497;52.494;7.546;2023-11-22T12:05:36;102186.88;;;12.03;78.69
40788;BME280;26497;52.494;7.546;2023-11-22T12:08:03;102178.03;;;12.03;78.55
40788;BME280;26497;52.494;7.546;2023-11-22T12:10:30;102193.47;;;12.29;82.75
40788;BME280;26497;52.494;7.546;2023-11-22T12:12:58;102203.16;;;12.83;79.95
40788;BME280;26497;52.494;7.546;2023-11-22T12:15:26;102201.91;;;13.20;74.27
40788;BME280;26497;52.494;7.546;2023-11-22T12:17:55;102202.84;;;13.25;77.23
40788;BME280;26497;52.494;7.546;2023-11-22T12:20:23;102213.94;;;13.65;70.94
40788;BME280;26497;52.494;7.546;2023-11-22T12:22:52;102227.66;;;13.32;70.02
40788;BME280;26497;52.494;7.546;2023-11-22T12:25:19;102230.78;;;13.03;68.54
40788;BME280;26497;52.494;7.546;2023-11-22T12:27:47;102226.94;;;12.80;67.87
40788;BME280;26497;52.494;7.546;2023-11-22T12:30:30;102212.38;;;12.52;64.26
40788;BME280;26497;52.494;7.546;2023-11-22T12:33:02;102198.81;;;12.90;59.22
40788;BME280;26497;52.494;7.546;2023-11-22T12:35:30;102188.56;;;12.53;50.65
40788;BME280;26497;52.494;7.546;2023-11-22T12:37:59;102180.16;;;12.81;46.86
40788;BME280;26497;52.494;7.546;2023-11-22T12:40:28;102186.41;;;12.86;41.87
40788;BME280;26497;52.494;7.546;2023-11-22T12:42:58;102183.13;;;12.44;44.23
40788;BME280;26497;52.494;7.546;2023-11-22T12:45:27;102202.06;;;12.71;42.20
40788;BME280;26497;52.494;7.546;2023-11-22T12:47:55;102211.00;;;12.23;42.21
40788;BME280;26497;52.494;7.546;2023-11-22T12:50:35;102200.22;;;12.65;42.95
40788;BME280;26497;52.494;7.546;2023-11-22T12:53:10;102198.59;;;12.18;40.67
40788;BME280;26497;52.494;7.546;2023-11-22T12:55:38;102199.91;;;11.95;39.87
40788;BME280;26497;52.494;7.546;2023-11-22T12:58:08;102206.25;;;12.04;41.90
40788;BME280;26497;52.494;7.546;2023-11-22T13:00:35;102204.06;;;11.81;41.07
40788;BME280;26497;52.494;7.546;2023-11-22T13:03:05;102190.75;;;11.76;41.69
40788;BME280;26497;52.494;7.546;2023-11-22T13:05:33;102188.34;;;11.89;40.56
40788;BME280;26497;52.494;7.546;2023-11-22T13:08:00;102176.09;;;11.95;41.69
40788;BME280;26497;52.494;7.546;2023-11-22T13:10:29;102182.97;;;11.86;41.77
40788;BME280;26497;52.494;7.546;2023-11-22T13:12:57;102184.03;;;11.48;40.72
40788;BME280;26497;52.494;7.546;2023-11-22T13:15:24;102184.53;;;10.88;41.24
40788;BME280;26497;52.494;7.546;2023-11-22T13:17:52;102178.25;;;10.83;41.58
40788;BME280;26497;52.494;7.546;2023-11-22T13:20:22;102176.84;;;10.99;41.26
40788;BME280;26497;52.494;7.546;2023-11-22T13:22:52;102185.47;;;10.90;41.77
40788;BME280;26497;52.494;7.546;2023-11-22T13:25:20;102183.34;;;10.74;42.38
40788;BME280;26497;52.494;7.546;2023-11-22T13:27:49;102182.25;;;10.66;43.08
40788;BME280;26497;52.494;7.546;2023-11-22T13:30:19;102178.38;;;10.50;42.58
40788;BME280;26497;52.494;7.546;2023-11-22T13:32:48;102181.00;;;10.50;43.14
40788;BME280;26497;52.494;7.546;2023-11-22T13:35:16;102174.25;;;10.27;43.51
40788;BME280;26497;52.494;7.546;2023-11-22T13:37:44;102164.06;;;10.40;43.23